Terminal Aerodrome Forecast
Issued by NWS Los Angeles, CA

Home | Current Version | Previous Version | Text Only | Print | Product List | Glossary On
Versions: 1 2 3 4 5 6 7 8 9 10 11 12 13 14 15 16 17 18 19 20 21 22
000
FTUS46 KLOX 171000 AAA
TAFSMX
TAF AMD
KSMX 171012Z 1710/1806 VRB03KT 5SM BR SKC
     FM171200 VRB03KT 4SM BR OVC005
     FM171600 VRB03KT 6SM BR BKN008
     FM171800 VRB03KT P6SM SKC
     FM172000 30012KT P6SM SKC
     FM180300 VRB03KT P6SM BKN010=

USA.gov is the U.S. government's official web portal to all federal, state and local government web resources and services.